VEPT

Lok Nayak Jayaprakash

Airport
ICAO code
VEPT
Summary
ICAO Region
APAC
ICAO Territory
Location

Patna, Bihar,

Coordinates
25° 35' 30" N , 85° 5' 22" E
KCC
Airport WX
Cumulonimbus
Metar
VEPT 151500Z 09011KT 3500 BR SCT016 FEW030CB BKN100 35/31 Q0997 NOSIG

Description

Lok Nayak Jayaprakash Airport, also known as Patna Airport and Jaiprakash Narayan Airport, Patna, is a public use airport located 5 km southwest of the central business district of Patna, the capital city of state of Bihar, India.

Climatology

Humid “subtropical” climate (Köppen climate classification Cwa) - characterized by hot, humid summers and cool winters.

Airport map

Aerial View

SKYbrary Partners:

Safety knowledge contributed by: